sensor_id;sensor_type;location;lat;lon;timestamp;temperature;humidity
14798;DHT22;7490;63.708;20.368;2023-02-28T00:02:14;7.30;77.10
14798;DHT22;7490;63.708;20.368;2023-02-28T00:04:43;7.30;77.10
14798;DHT22;7490;63.708;20.368;2023-02-28T00:07:09;7.30;77.10
14798;DHT22;7490;63.708;20.368;2023-02-28T00:09:34;7.30;77.10
14798;DHT22;7490;63.708;20.368;2023-02-28T00:12:00;7.20;77.10
14798;DHT22;7490;63.708;20.368;2023-02-28T00:14:38;7.30;77.30
14798;DHT22;7490;63.708;20.368;2023-02-28T00:17:04;7.20;77.10
14798;DHT22;7490;63.708;20.368;2023-02-28T00:19:29;7.20;77.20
14798;DHT22;7490;63.708;20.368;2023-02-28T00:21:55;7.20;77.20
14798;DHT22;7490;63.708;20.368;2023-02-28T00:24:21;7.20;77.10
14798;DHT22;7490;63.708;20.368;2023-02-28T00:26:46;7.40;77.30
14798;DHT22;7490;63.708;20.368;2023-02-28T00:29:12;7.20;77.10
14798;DHT22;7490;63.708;20.368;2023-02-28T00:31:37;7.10;77.10
14798;DHT22;7490;63.708;20.368;2023-02-28T00:34:03;7.30;77.30
14798;DHT22;7490;63.708;20.368;2023-02-28T00:36:29;7.10;77.30
14798;DHT22;7490;63.708;20.368;2023-02-28T00:38:55;7.10;77.30
14798;DHT22;7490;63.708;20.368;2023-02-28T00:41:20;7.10;77.50
14798;DHT22;7490;63.708;20.368;2023-02-28T00:43:46;7.00;77.50
14798;DHT22;7490;63.708;20.368;2023-02-28T00:46:12;7.00;77.50
14798;DHT22;7490;63.708;20.368;2023-02-28T00:48:37;7.00;77.50
14798;DHT22;7490;63.708;20.368;2023-02-28T00:51:03;7.00;77.50
14798;DHT22;7490;63.708;20.368;2023-02-28T00:53:29;7.00;77.60
14798;DHT22;7490;63.708;20.368;2023-02-28T00:55:55;7.00;77.60
14798;DHT22;7490;63.708;20.368;2023-02-28T00:58:21;7.00;77.60
14798;DHT22;7490;63.708;20.368;2023-02-28T01:00:46;7.00;77.60
14798;DHT22;7490;63.708;20.368;2023-02-28T01:03:17;7.00;77.60
14798;DHT22;7490;63.708;20.368;2023-02-28T01:05:44;6.90;77.50
14798;DHT22;7490;63.708;20.368;2023-02-28T01:08:09;6.90;77.50
14798;DHT22;7490;63.708;20.368;2023-02-28T01:10:37;6.90;77.50
14798;DHT22;7490;63.708;20.368;2023-02-28T01:13:04;6.90;77.70
14798;DHT22;7490;63.708;20.368;2023-02-28T01:15:29;6.80;77.60
14798;DHT22;7490;63.708;20.368;2023-02-28T01:17:57;6.80;77.80
14798;DHT22;7490;63.708;20.368;2023-02-28T01:20:23;6.80;77.80
14798;DHT22;7490;63.708;20.368;2023-02-28T01:22:49;6.80;77.70
14798;DHT22;7490;63.708;20.368;2023-02-28T01:25:15;6.80;77.70
14798;DHT22;7490;63.708;20.368;2023-02-28T01:27:40;6.80;77.60
14798;DHT22;7490;63.708;20.368;2023-02-28T01:30:10;6.70;77.50
14798;DHT22;7490;63.708;20.368;2023-02-28T01:32:36;6.70;77.60
14798;DHT22;7490;63.708;20.368;2023-02-28T01:35:02;6.70;77.60
14798;DHT22;7490;63.708;20.368;2023-02-28T01:37:27;6.70;77.40
14798;DHT22;7490;63.708;20.368;2023-02-28T01:39:54;6.70;77.30
14798;DHT22;7490;63.708;20.368;2023-02-28T01:42:19;6.70;77.20
14798;DHT22;7490;63.708;20.368;2023-02-28T01:47:42;6.70;77.10
14798;DHT22;7490;63.708;20.368;2023-02-28T01:50:17;6.70;77.10
14798;DHT22;7490;63.708;20.368;2023-02-28T01:52:45;6.80;77.00
14798;DHT22;7490;63.708;20.368;2023-02-28T01:55:12;6.80;76.80
14798;DHT22;7490;63.708;20.368;2023-02-28T01:57:45;6.90;76.70
14798;DHT22;7490;63.708;20.368;2023-02-28T02:00:14;6.90;76.40
14798;DHT22;7490;63.708;20.368;2023-02-28T02:02:43;7.00;76.30
14798;DHT22;7490;63.708;20.368;2023-02-28T02:05:15;7.00;76.10
14798;DHT22;7490;63.708;20.368;2023-02-28T02:07:43;7.10;76.00
14798;DHT22;7490;63.708;20.368;2023-02-28T02:10:16;7.10;75.70
14798;DHT22;7490;63.708;20.368;2023-02-28T02:38:20;7.40;74.50
14798;DHT22;7490;63.708;20.368;2023-02-28T02:41:04;7.40;74.30
14798;DHT22;7490;63.708;20.368;2023-02-28T02:44:12;7.40;74.20
14798;DHT22;7490;63.708;20.368;2023-02-28T02:46:44;7.50;74.20
14798;DHT22;7490;63.708;20.368;2023-02-28T02:49:32;7.60;74.10
14798;DHT22;7490;63.708;20.368;2023-02-28T02:52:03;7.60;73.80
14798;DHT22;7490;63.708;20.368;2023-02-28T02:54:36;7.60;73.50
14798;DHT22;7490;63.708;20.368;2023-02-28T02:57:10;7.70;73.30
14798;DHT22;7490;63.708;20.368;2023-02-28T02:59:39;7.70;73.10
14798;DHT22;7490;63.708;20.368;2023-02-28T03:02:08;7.70;73.00
14798;DHT22;7490;63.708;20.368;2023-02-28T03:04:40;7.80;72.80
14798;DHT22;7490;63.708;20.368;2023-02-28T03:07:07;7.70;72.70
14798;DHT22;7490;63.708;20.368;2023-02-28T03:09:34;7.70;72.80
14798;DHT22;7490;63.708;20.368;2023-02-28T03:12:01;7.80;72.80
14798;DHT22;7490;63.708;20.368;2023-02-28T03:14:56;7.80;72.70
14798;DHT22;7490;63.708;20.368;2023-02-28T03:17:33;7.70;72.30
14798;DHT22;7490;63.708;20.368;2023-02-28T03:20:17;7.70;72.40
14798;DHT22;7490;63.708;20.368;2023-02-28T03:23:04;7.70;72.40
14798;DHT22;7490;63.708;20.368;2023-02-28T03:30:52;7.60;71.80
14798;DHT22;7490;63.708;20.368;2023-02-28T03:33:24;7.60;71.60
14798;DHT22;7490;63.708;20.368;2023-02-28T03:36:05;7.50;71.60
14798;DHT22;7490;63.708;20.368;2023-02-28T03:39:00;7.40;71.60
14798;DHT22;7490;63.708;20.368;2023-02-28T03:44:30;7.20;71.50
14798;DHT22;7490;63.708;20.368;2023-02-28T03:47:41;7.20;71.70
14798;DHT22;7490;63.708;20.368;2023-02-28T03:50:05;7.10;71.70
14798;DHT22;7490;63.708;20.368;2023-02-28T03:52:36;7.10;71.70
14798;DHT22;7490;63.708;20.368;2023-02-28T03:55:08;7.00;71.60
14798;DHT22;7490;63.708;20.368;2023-02-28T03:57:58;7.00;71.80
14798;DHT22;7490;63.708;20.368;2023-02-28T04:00:49;6.90;71.70
14798;DHT22;7490;63.708;20.368;2023-02-28T04:03:16;6.80;71.70
14798;DHT22;7490;63.708;20.368;2023-02-28T04:05:53;6.80;71.70
14798;DHT22;7490;63.708;20.368;2023-02-28T04:08:20;6.70;71.80
14798;DHT22;7490;63.708;20.368;2023-02-28T04:10:57;6.70;72.00
14798;DHT22;7490;63.708;20.368;2023-02-28T04:13:23;6.60;72.00
14798;DHT22;7490;63.708;20.368;2023-02-28T04:15:49;6.60;71.80
14798;DHT22;7490;63.708;20.368;2023-02-28T04:18:15;6.60;72.00
14798;DHT22;7490;63.708;20.368;2023-02-28T04:20:40;6.50;72.00
14798;DHT22;7490;63.708;20.368;2023-02-28T04:23:06;6.50;71.90
14798;DHT22;7490;63.708;20.368;2023-02-28T04:25:31;6.50;72.00
14798;DHT22;7490;63.708;20.368;2023-02-28T04:27:57;6.40;71.90
14798;DHT22;7490;63.708;20.368;2023-02-28T04:30:23;6.40;71.90
14798;DHT22;7490;63.708;20.368;2023-02-28T04:32:48;6.40;72.00
14798;DHT22;7490;63.708;20.368;2023-02-28T04:35:14;6.40;71.90
14798;DHT22;7490;63.708;20.368;2023-02-28T04:37:40;6.30;71.90
14798;DHT22;7490;63.708;20.368;2023-02-28T04:40:06;6.30;71.80
14798;DHT22;7490;63.708;20.368;2023-02-28T04:42:32;6.20;71.90
14798;DHT22;7490;63.708;20.368;2023-02-28T04:45:02;6.20;71.90
14798;DHT22;7490;63.708;20.368;2023-02-28T04:47:28;6.10;72.00
14798;DHT22;7490;63.708;20.368;2023-02-28T04:49:54;6.10;72.00
14798;DHT22;7490;63.708;20.368;2023-02-28T04:52:19;6.00;72.00
14798;DHT22;7490;63.708;20.368;2023-02-28T04:54:45;6.00;72.30
14798;DHT22;7490;63.708;20.368;2023-02-28T04:57:11;5.90;72.30
14798;DHT22;7490;63.708;20.368;2023-02-28T04:59:37;5.90;72.40
14798;DHT22;7490;63.708;20.368;2023-02-28T05:02:02;5.90;72.40
14798;DHT22;7490;63.708;20.368;2023-02-28T05:04:33;5.90;72.30
14798;DHT22;7490;63.708;20.368;2023-02-28T05:07:00;5.80;73.10
14798;DHT22;7490;63.708;20.368;2023-02-28T05:09:26;6.00;72.40
14798;DHT22;7490;63.708;20.368;2023-02-28T05:11:52;5.70;72.20
14798;DHT22;7490;63.708;20.368;2023-02-28T05:14:18;5.70;72.30
14798;DHT22;7490;63.708;20.368;2023-02-28T05:16:43;5.60;72.30
14798;DHT22;7490;63.708;20.368;2023-02-28T05:19:09;5.60;72.40
14798;DHT22;7490;63.708;20.368;2023-02-28T05:21:37;5.50;72.40
14798;DHT22;7490;63.708;20.368;2023-02-28T05:24:06;5.50;72.40
14798;DHT22;7490;63.708;20.368;2023-02-28T05:26:35;5.40;72.50
14798;DHT22;7490;63.708;20.368;2023-02-28T05:29:01;5.40;72.60
14798;DHT22;7490;63.708;20.368;2023-02-28T05:31:27;5.30;72.60
14798;DHT22;7490;63.708;20.368;2023-02-28T05:33:53;5.30;72.50
14798;DHT22;7490;63.708;20.368;2023-02-28T05:36:19;5.30;72.50
14798;DHT22;7490;63.708;20.368;2023-02-28T05:38:49;5.30;72.60
14798;DHT22;7490;63.708;20.368;2023-02-28T05:41:16;5.20;72.50
14798;DHT22;7490;63.708;20.368;2023-02-28T05:43:42;5.20;72.50
14798;DHT22;7490;63.708;20.368;2023-02-28T05:46:09;5.20;72.60
14798;DHT22;7490;63.708;20.368;2023-02-28T05:48:36;5.20;72.60
14798;DHT22;7490;63.708;20.368;2023-02-28T05:51:04;5.20;72.50
14798;DHT22;7490;63.708;20.368;2023-02-28T05:53:31;5.20;72.50
14798;DHT22;7490;63.708;20.368;2023-02-28T05:55:57;5.20;72.40
14798;DHT22;7490;63.708;20.368;2023-02-28T05:58:23;5.20;72.30
14798;DHT22;7490;63.708;20.368;2023-02-28T06:00:51;5.20;72.20
14798;DHT22;7490;63.708;20.368;2023-02-28T06:03:16;5.20;72.10
14798;DHT22;7490;63.708;20.368;2023-02-28T06:05:42;5.30;72.10
14798;DHT22;7490;63.708;20.368;2023-02-28T06:08:08;5.30;72.00
14798;DHT22;7490;63.708;20.368;2023-02-28T06:10:37;5.40;72.00
14798;DHT22;7490;63.708;20.368;2023-02-28T06:13:03;5.40;71.80
14798;DHT22;7490;63.708;20.368;2023-02-28T06:15:29;5.40;71.80
14798;DHT22;7490;63.708;20.368;2023-02-28T06:17:56;5.50;71.70
14798;DHT22;7490;63.708;20.368;2023-02-28T06:20:23;5.60;72.50
14798;DHT22;7490;63.708;20.368;2023-02-28T06:22:49;5.70;71.70
14798;DHT22;7490;63.708;20.368;2023-02-28T06:25:17;5.80;71.50
14798;DHT22;7490;63.708;20.368;2023-02-28T06:27:43;5.90;71.30
14798;DHT22;7490;63.708;20.368;2023-02-28T06:30:10;6.00;71.10
14798;DHT22;7490;63.708;20.368;2023-02-28T06:32:36;6.10;71.00
14798;DHT22;7490;63.708;20.368;2023-02-28T06:35:02;6.20;70.80
14798;DHT22;7490;63.708;20.368;2023-02-28T06:37:29;6.20;70.50
14798;DHT22;7490;63.708;20.368;2023-02-28T06:39:55;6.30;70.30
14798;DHT22;7490;63.708;20.368;2023-02-28T06:42:22;6.40;70.10
14798;DHT22;7490;63.708;20.368;2023-02-28T06:44:50;6.50;70.00
14798;DHT22;7490;63.708;20.368;2023-02-28T06:47:16;6.50;69.80
14798;DHT22;7490;63.708;20.368;2023-02-28T06:49:42;6.60;69.70
14798;DHT22;7490;63.708;20.368;2023-02-28T06:52:10;6.60;69.40
14798;DHT22;7490;63.708;20.368;2023-02-28T06:54:37;6.70;69.20
14798;DHT22;7490;63.708;20.368;2023-02-28T06:57:03;6.70;69.00
14798;DHT22;7490;63.708;20.368;2023-02-28T06:59:28;6.80;68.80
14798;DHT22;7490;63.708;20.368;2023-02-28T07:01:54;6.80;68.50
14798;DHT22;7490;63.708;20.368;2023-02-28T07:04:21;6.80;68.30
14798;DHT22;7490;63.708;20.368;2023-02-28T07:06:47;6.80;68.10
14798;DHT22;7490;63.708;20.368;2023-02-28T07:09:12;6.80;68.00
14798;DHT22;7490;63.708;20.368;2023-02-28T07:11:40;6.80;68.00
14798;DHT22;7490;63.708;20.368;2023-02-28T07:14:06;6.80;67.80
14798;DHT22;7490;63.708;20.368;2023-02-28T07:16:32;6.90;67.80
14798;DHT22;7490;63.708;20.368;2023-02-28T07:18:58;6.90;67.70
14798;DHT22;7490;63.708;20.368;2023-02-28T07:21:24;6.90;67.60
14798;DHT22;7490;63.708;20.368;2023-02-28T07:23:50;6.90;67.70
14798;DHT22;7490;63.708;20.368;2023-02-28T07:26:18;6.90;67.70
14798;DHT22;7490;63.708;20.368;2023-02-28T07:28:46;6.90;67.70
14798;DHT22;7490;63.708;20.368;2023-02-28T07:31:13;6.90;67.60
14798;DHT22;7490;63.708;20.368;2023-02-28T07:33:39;6.90;67.60
14798;DHT22;7490;63.708;20.368;2023-02-28T07:36:13;6.90;67.60
14798;DHT22;7490;63.708;20.368;2023-02-28T07:38:44;7.00;67.60
14798;DHT22;7490;63.708;20.368;2023-02-28T07:41:11;7.00;67.50
14798;DHT22;7490;63.708;20.368;2023-02-28T07:43:38;7.00;67.50
14798;DHT22;7490;63.708;20.368;2023-02-28T07:46:04;7.00;67.30
14798;DHT22;7490;63.708;20.368;2023-02-28T07:48:30;7.10;67.30
14798;DHT22;7490;63.708;20.368;2023-02-28T07:50:56;7.10;67.10
14798;DHT22;7490;63.708;20.368;2023-02-28T07:53:22;7.10;67.00
14798;DHT22;7490;63.708;20.368;2023-02-28T07:55:48;7.20;67.00
14798;DHT22;7490;63.708;20.368;2023-02-28T07:58:14;7.20;66.90
14798;DHT22;7490;63.708;20.368;2023-02-28T08:00:39;7.20;66.70
14798;DHT22;7490;63.708;20.368;2023-02-28T08:03:05;7.30;66.60
14798;DHT22;7490;63.708;20.368;2023-02-28T08:05:31;7.30;67.30
14798;DHT22;7490;63.708;20.368;2023-02-28T08:07:57;7.30;66.40
14798;DHT22;7490;63.708;20.368;2023-02-28T08:10:23;7.40;66.40
14798;DHT22;7490;63.708;20.368;2023-02-28T08:12:49;7.40;66.30
14798;DHT22;7490;63.708;20.368;2023-02-28T08:15:15;7.50;66.10
14798;DHT22;7490;63.708;20.368;2023-02-28T08:17:40;7.50;65.90
14798;DHT22;7490;63.708;20.368;2023-02-28T08:20:07;7.50;65.90
14798;DHT22;7490;63.708;20.368;2023-02-28T08:22:33;7.60;65.90
14798;DHT22;7490;63.708;20.368;2023-02-28T08:24:58;7.60;65.90
14798;DHT22;7490;63.708;20.368;2023-02-28T08:27:24;7.70;65.90
14798;DHT22;7490;63.708;20.368;2023-02-28T08:29:50;7.80;65.70
14798;DHT22;7490;63.708;20.368;2023-02-28T08:32:15;7.90;65.40
14798;DHT22;7490;63.708;20.368;2023-02-28T08:34:41;8.00;65.20
14798;DHT22;7490;63.708;20.368;2023-02-28T08:37:07;8.10;65.00
14798;DHT22;7490;63.708;20.368;2023-02-28T08:39:36;8.20;64.70
14798;DHT22;7490;63.708;20.368;2023-02-28T08:42:03;8.30;64.30
14798;DHT22;7490;63.708;20.368;2023-02-28T08:44:28;8.30;64.20
14798;DHT22;7490;63.708;20.368;2023-02-28T08:46:54;8.40;64.30
14798;DHT22;7490;63.708;20.368;2023-02-28T08:49:20;8.50;64.50
14798;DHT22;7490;63.708;20.368;2023-02-28T08:51:46;8.60;64.10
14798;DHT22;7490;63.708;20.368;2023-02-28T08:54:11;8.80;63.80
14798;DHT22;7490;63.708;20.368;2023-02-28T08:56:38;8.90;63.30
14798;DHT22;7490;63.708;20.368;2023-02-28T08:59:04;8.80;62.80
14798;DHT22;7490;63.708;20.368;2023-02-28T09:01:30;8.80;62.50
14798;DHT22;7490;63.708;20.368;2023-02-28T09:03:57;8.80;62.60
14798;DHT22;7490;63.708;20.368;2023-02-28T09:06:25;8.80;62.70
14798;DHT22;7490;63.708;20.368;2023-02-28T09:08:52;8.80;62.60
14798;DHT22;7490;63.708;20.368;2023-02-28T09:11:18;8.70;62.10
14798;DHT22;7490;63.708;20.368;2023-02-28T09:13:45;8.70;62.10
14798;DHT22;7490;63.708;20.368;2023-02-28T09:16:13;8.60;62.00
14798;DHT22;7490;63.708;20.368;2023-02-28T09:18:40;8.50;61.80
14798;DHT22;7490;63.708;20.368;2023-02-28T09:21:11;8.40;61.80
14798;DHT22;7490;63.708;20.368;2023-02-28T09:23:40;8.40;62.10
14798;DHT22;7490;63.708;20.368;2023-02-28T09:26:07;8.40;62.40
14798;DHT22;7490;63.708;20.368;2023-02-28T09:28:33;8.70;62.70
14798;DHT22;7490;63.708;20.368;2023-02-28T09:30:59;9.00;62.90
14798;DHT22;7490;63.708;20.368;2023-02-28T09:33:25;9.50;62.30
14798;DHT22;7490;63.708;20.368;2023-02-28T09:35:57;10.00;61.60
14798;DHT22;7490;63.708;20.368;2023-02-28T09:38:23;10.20;60.10
14798;DHT22;7490;63.708;20.368;2023-02-28T09:40:55;10.50;60.10
14798;DHT22;7490;63.708;20.368;2023-02-28T09:43:25;10.70;60.10
14798;DHT22;7490;63.708;20.368;2023-02-28T09:48:50;11.00;58.20
14798;DHT22;7490;63.708;20.368;2023-02-28T09:53:53;11.30;58.40
14798;DHT22;7490;63.708;20.368;2023-02-28T09:56:22;11.40;58.00
14798;DHT22;7490;63.708;20.368;2023-02-28T09:58:59;11.40;58.20
14798;DHT22;7490;63.708;20.368;2023-02-28T10:01:51;11.20;57.50
14798;DHT22;7490;63.708;20.368;2023-02-28T10:04:43;11.10;57.40
14798;DHT22;7490;63.708;20.368;2023-02-28T10:10:26;10.90;58.20
14798;DHT22;7490;63.708;20.368;2023-02-28T10:12:55;10.80;57.80
14798;DHT22;7490;63.708;20.368;2023-02-28T10:15:24;10.70;58.00
14798;DHT22;7490;63.708;20.368;2023-02-28T10:17:54;10.60;57.90
14798;DHT22;7490;63.708;20.368;2023-02-28T10:20:24;10.60;57.80
14798;DHT22;7490;63.708;20.368;2023-02-28T10:25:27;10.90;59.00
14798;DHT22;7490;63.708;20.368;2023-02-28T10:27:56;11.60;58.60
14798;DHT22;7490;63.708;20.368;2023-02-28T10:30:24;12.50;57.30
14798;DHT22;7490;63.708;20.368;2023-02-28T10:32:52;12.80;55.50
14798;DHT22;7490;63.708;20.368;2023-02-28T10:37:57;12.70;54.80
14798;DHT22;7490;63.708;20.368;2023-02-28T10:42:55;12.80;55.50
14798;DHT22;7490;63.708;20.368;2023-02-28T10:45:22;13.40;55.50
14798;DHT22;7490;63.708;20.368;2023-02-28T10:52:53;15.00;52.10
14798;DHT22;7490;63.708;20.368;2023-02-28T10:55:25;14.90;51.00
14798;DHT22;7490;63.708;20.368;2023-02-28T10:57:51;14.40;50.50
14798;DHT22;7490;63.708;20.368;2023-02-28T11:00:21;13.80;50.80
14798;DHT22;7490;63.708;20.368;2023-02-28T11:02:48;13.20;51.00
14798;DHT22;7490;63.708;20.368;2023-02-28T11:05:32;12.70;51.60
14798;DHT22;7490;63.708;20.368;2023-02-28T11:08:25;12.20;51.90
14798;DHT22;7490;63.708;20.368;2023-02-28T11:10:58;11.70;52.50
14798;DHT22;7490;63.708;20.368;2023-02-28T11:13:32;11.40;53.10
14798;DHT22;7490;63.708;20.368;2023-02-28T11:16:03;11.10;53.40
14798;DHT22;7490;63.708;20.368;2023-02-28T11:18:54;10.90;53.70
14798;DHT22;7490;63.708;20.368;2023-02-28T11:21:32;10.70;53.80
14798;DHT22;7490;63.708;20.368;2023-02-28T11:24:05;10.40;54.20
14798;DHT22;7490;63.708;20.368;2023-02-28T11:26:46;10.30;54.70
14798;DHT22;7490;63.708;20.368;2023-02-28T11:29:26;10.30;54.90
14798;DHT22;7490;63.708;20.368;2023-02-28T11:34:34;10.20;54.90
14798;DHT22;7490;63.708;20.368;2023-02-28T11:37:02;10.10;55.10
14798;DHT22;7490;63.708;20.368;2023-02-28T11:39:31;10.10;55.10
14798;DHT22;7490;63.708;20.368;2023-02-28T11:42:22;10.00;55.00
14798;DHT22;7490;63.708;20.368;2023-02-28T11:45:12;9.90;55.70
14798;DHT22;7490;63.708;20.368;2023-02-28T11:47:44;9.80;55.30
14798;DHT22;7490;63.708;20.368;2023-02-28T11:50:33;9.70;55.50
14798;DHT22;7490;63.708;20.368;2023-02-28T11:56:02;9.50;55.90
14798;DHT22;7490;63.708;20.368;2023-02-28T12:28:53;8.90;58.00
14798;DHT22;7490;63.708;20.368;2023-02-28T12:31:49;8.90;58.10
14798;DHT22;7490;63.708;20.368;2023-02-28T12:34:20;8.90;58.00
14798;DHT22;7490;63.708;20.368;2023-02-28T12:36:47;9.00;58.10
14798;DHT22;7490;63.708;20.368;2023-02-28T12:39:28;9.00;58.10
14798;DHT22;7490;63.708;20.368;2023-02-28T12:45:01;9.00;58.10
14798;DHT22;7490;63.708;20.368;2023-02-28T12:47:27;9.00;58.20
14798;DHT22;7490;63.708;20.368;2023-02-28T12:50:10;9.00;58.20
14798;DHT22;7490;63.708;20.368;2023-02-28T12:52:48;9.00;58.10
14798;DHT22;7490;63.708;20.368;2023-02-28T12:55:53;8.90;58.10
14798;DHT22;7490;63.708;20.368;2023-02-28T12:58:34;8.80;58.10
14798;DHT22;7490;63.708;20.368;2023-02-28T13:04:42;8.70;58.20
14798;DHT22;7490;63.708;20.368;2023-02-28T13:09:56;8.60;58.50
14798;DHT22;7490;63.708;20.368;2023-02-28T13:12:24;8.60;58.50
14798;DHT22;7490;63.708;20.368;2023-02-28T13:15:07;8.60;58.60
14798;DHT22;7490;63.708;20.368;2023-02-28T13:17:39;8.60;58.70
14798;DHT22;7490;63.708;20.368;2023-02-28T13:20:16;8.60;58.70
14798;DHT22;7490;63.708;20.368;2023-02-28T13:22:44;8.60;58.70
14798;DHT22;7490;63.708;20.368;2023-02-28T13:27:52;8.60;59.40
14798;DHT22;7490;63.708;20.368;2023-02-28T13:33:25;8.60;59.00
14798;DHT22;7490;63.708;20.368;2023-02-28T13:38:41;8.60;59.00
14798;DHT22;7490;63.708;20.368;2023-02-28T13:41:41;8.60;59.00
14798;DHT22;7490;63.708;20.368;2023-02-28T13:44:13;8.50;58.90
14798;DHT22;7490;63.708;20.368;2023-02-28T13:51:53;8.50;59.10
14798;DHT22;7490;63.708;20.368;2023-02-28T13:54:24;8.40;59.10
14798;DHT22;7490;63.708;20.368;2023-02-28T13:57:02;8.50;59.30
14798;DHT22;7490;63.708;20.368;2023-02-28T13:59:38;8.40;59.20
14798;DHT22;7490;63.708;20.368;2023-02-28T14:05:06;8.30;59.20
14798;DHT22;7490;63.708;20.368;2023-02-28T14:07:58;8.30;59.30
14798;DHT22;7490;63.708;20.368;2023-02-28T14:10:31;8.30;59.40
14798;DHT22;7490;63.708;20.368;2023-02-28T14:13:13;8.20;59.40
14798;DHT22;7490;63.708;20.368;2023-02-28T14:16:08;8.20;59.40
14798;DHT22;7490;63.708;20.368;2023-02-28T14:18:40;8.20;59.40
14798;DHT22;7490;63.708;20.368;2023-02-28T14:37:56;7.90;59.80
14798;DHT22;7490;63.708;20.368;2023-02-28T14:40:31;7.90;59.80
14798;DHT22;7490;63.708;20.368;2023-02-28T14:43:00;7.80;59.90
14798;DHT22;7490;63.708;20.368;2023-02-28T14:45:29;7.80;60.00
14798;DHT22;7490;63.708;20.368;2023-02-28T14:47:57;7.80;60.10
14798;DHT22;7490;63.708;20.368;2023-02-28T14:50:27;7.70;60.10
14798;DHT22;7490;63.708;20.368;2023-02-28T14:52:55;7.70;60.20
14798;DHT22;7490;63.708;20.368;2023-02-28T14:55:27;7.70;60.20
14798;DHT22;7490;63.708;20.368;2023-02-28T14:57:59;7.60;60.20
14798;DHT22;7490;63.708;20.368;2023-02-28T15:00:30;7.60;60.30
14798;DHT22;7490;63.708;20.368;2023-02-28T15:02:58;7.60;60.40
14798;DHT22;7490;63.708;20.368;2023-02-28T15:05:31;7.60;60.50
14798;DHT22;7490;63.708;20.368;2023-02-28T15:10:31;7.50;60.50
14798;DHT22;7490;63.708;20.368;2023-02-28T15:13:05;7.50;60.60
14798;DHT22;7490;63.708;20.368;2023-02-28T15:18:26;7.40;60.90
14798;DHT22;7490;63.708;20.368;2023-02-28T15:20:56;7.40;61.00
14798;DHT22;7490;63.708;20.368;2023-02-28T15:23:23;7.40;60.90
14798;DHT22;7490;63.708;20.368;2023-02-28T15:25:50;7.40;61.00
14798;DHT22;7490;63.708;20.368;2023-02-28T15:28:19;7.30;61.10
14798;DHT22;7490;63.708;20.368;2023-02-28T15:31:01;7.30;61.20
14798;DHT22;7490;63.708;20.368;2023-02-28T15:33:32;7.30;62.10
14798;DHT22;7490;63.708;20.368;2023-02-28T15:36:15;7.30;61.40
14798;DHT22;7490;63.708;20.368;2023-02-28T15:38:43;7.20;61.30
14798;DHT22;7490;63.708;20.368;2023-02-28T15:41:35;7.20;61.40
14798;DHT22;7490;63.708;20.368;2023-02-28T15:46:57;7.10;61.60
14798;DHT22;7490;63.708;20.368;2023-02-28T15:49:24;7.10;61.70
14798;DHT22;7490;63.708;20.368;2023-02-28T15:51:51;7.10;61.80
14798;DHT22;7490;63.708;20.368;2023-02-28T15:54:32;7.00;61.80
14798;DHT22;7490;63.708;20.368;2023-02-28T15:57:03;7.00;61.90
14798;DHT22;7490;63.708;20.368;2023-02-28T15:59:31;7.00;62.00
14798;DHT22;7490;63.708;20.368;2023-02-28T16:04:35;6.90;62.20
14798;DHT22;7490;63.708;20.368;2023-02-28T16:07:03;6.80;62.20
14798;DHT22;7490;63.708;20.368;2023-02-28T16:09:29;6.80;62.30
14798;DHT22;7490;63.708;20.368;2023-02-28T16:12:00;6.80;62.40
14798;DHT22;7490;63.708;20.368;2023-02-28T16:14:30;6.80;62.50
14798;DHT22;7490;63.708;20.368;2023-02-28T16:17:03;6.70;62.60
14798;DHT22;7490;63.708;20.368;2023-02-28T16:19:29;6.70;62.60
14798;DHT22;7490;63.708;20.368;2023-02-28T16:21:56;6.60;63.40
14798;DHT22;7490;63.708;20.368;2023-02-28T16:24:22;6.70;62.80
14798;DHT22;7490;63.708;20.368;2023-02-28T16:26:49;6.60;62.80
14798;DHT22;7490;63.708;20.368;2023-02-28T16:29:25;6.60;63.00
14798;DHT22;7490;63.708;20.368;2023-02-28T16:31:52;6.60;63.10
14798;DHT22;7490;63.708;20.368;2023-02-28T16:34:19;6.60;63.10
14798;DHT22;7490;63.708;20.368;2023-02-28T16:36:47;6.60;63.10
14798;DHT22;7490;63.708;20.368;2023-02-28T16:39:13;6.60;63.20
14798;DHT22;7490;63.708;20.368;2023-02-28T16:41:43;6.70;63.30
14798;DHT22;7490;63.708;20.368;2023-02-28T16:44:13;6.50;63.30
14798;DHT22;7490;63.708;20.368;2023-02-28T16:46:39;6.40;63.30
14798;DHT22;7490;63.708;20.368;2023-02-28T16:49:10;6.40;63.30
14798;DHT22;7490;63.708;20.368;2023-02-28T16:51:37;6.30;63.50
14798;DHT22;7490;63.708;20.368;2023-02-28T16:54:02;6.30;63.60
14798;DHT22;7490;63.708;20.368;2023-02-28T16:56:28;6.20;63.70
14798;DHT22;7490;63.708;20.368;2023-02-28T16:58:57;6.10;63.60
14798;DHT22;7490;63.708;20.368;2023-02-28T17:01:24;6.10;63.70
14798;DHT22;7490;63.708;20.368;2023-02-28T17:03:52;6.00;63.60
14798;DHT22;7490;63.708;20.368;2023-02-28T17:06:24;5.90;63.80
14798;DHT22;7490;63.708;20.368;2023-02-28T17:08:51;5.80;63.80
14798;DHT22;7490;63.708;20.368;2023-02-28T17:11:18;5.70;63.90
14798;DHT22;7490;63.708;20.368;2023-02-28T17:13:45;5.70;64.90
14798;DHT22;7490;63.708;20.368;2023-02-28T17:16:30;5.90;64.40
14798;DHT22;7490;63.708;20.368;2023-02-28T17:19:00;5.60;64.50
14798;DHT22;7490;63.708;20.368;2023-02-28T17:21:26;5.60;64.50
14798;DHT22;7490;63.708;20.368;2023-02-28T17:23:51;5.60;64.60
14798;DHT22;7490;63.708;20.368;2023-02-28T17:26:19;5.50;64.70
14798;DHT22;7490;63.708;20.368;2023-02-28T17:28:46;5.80;64.90
14798;DHT22;7490;63.708;20.368;2023-02-28T17:31:12;5.50;64.80
14798;DHT22;7490;63.708;20.368;2023-02-28T17:33:39;5.50;64.70
14798;DHT22;7490;63.708;20.368;2023-02-28T17:36:05;5.40;64.60
14798;DHT22;7490;63.708;20.368;2023-02-28T17:38:31;5.40;64.80
14798;DHT22;7490;63.708;20.368;2023-02-28T17:40:57;5.30;64.70
14798;DHT22;7490;63.708;20.368;2023-02-28T17:43:24;5.20;64.70
14798;DHT22;7490;63.708;20.368;2023-02-28T17:45:50;5.20;64.90
14798;DHT22;7490;63.708;20.368;2023-02-28T17:48:17;5.10;65.00
14798;DHT22;7490;63.708;20.368;2023-02-28T17:50:42;5.10;65.20
14798;DHT22;7490;63.708;20.368;2023-02-28T17:53:08;5.00;65.20
14798;DHT22;7490;63.708;20.368;2023-02-28T17:55:34;4.90;65.30
14798;DHT22;7490;63.708;20.368;2023-02-28T17:58:01;4.90;65.40
14798;DHT22;7490;63.708;20.368;2023-02-28T18:00:28;4.80;65.50
14798;DHT22;7490;63.708;20.368;2023-02-28T18:02:54;4.80;65.60
14798;DHT22;7490;63.708;20.368;2023-02-28T18:05:20;4.70;65.60
14798;DHT22;7490;63.708;20.368;2023-02-28T18:07:45;4.70;65.80
14798;DHT22;7490;63.708;20.368;2023-02-28T18:10:17;4.60;65.80
14798;DHT22;7490;63.708;20.368;2023-02-28T18:12:45;4.60;66.00
14798;DHT22;7490;63.708;20.368;2023-02-28T18:15:11;4.50;66.10
14798;DHT22;7490;63.708;20.368;2023-02-28T18:17:37;4.50;66.20
14798;DHT22;7490;63.708;20.368;2023-02-28T18:20:03;4.50;66.40
14798;DHT22;7490;63.708;20.368;2023-02-28T18:22:30;4.50;66.40
14798;DHT22;7490;63.708;20.368;2023-02-28T18:24:55;4.40;66.30
14798;DHT22;7490;63.708;20.368;2023-02-28T18:27:21;4.40;66.40
14798;DHT22;7490;63.708;20.368;2023-02-28T18:29:47;4.40;66.50